Time;durP1;ratioP1;P1;durP2;ratioP2;P2;SDS_P1;SDS_P2;PMS_P1;PMS_P2;Temp;Humidity;BMP_temperature;BMP_pressure;BME280_temperature;BME280_humidity;BME280_pressure;Samples;Min_cycle;Max_cycle;Signal;HPM_P1;HPM_P2
2022/07/21 00:00:28;;;;;;;4.60;4.18;;;21.60;1.00;;;;;;10499903;28;20204;-83
2022/07/21 00:05:50;;;;;;;7.22;4.30;;;21.50;1.00;;;;;;10485864;28;20215;-82
2022/07/21 00:11:12;;;;;;;5.72;4.35;;;21.40;1.00;;;;;;10482652;28;20541;-83
2022/07/21 00:16:34;;;;;;;5.38;4.03;;;21.40;1.00;;;;;;10483010;28;20511;-81
2022/07/21 00:21:56;;;;;;;4.68;4.05;;;21.30;1.00;;;;;;10483195;28;20230;-80
2022/07/21 00:27:17;;;;;;;6.65;4.55;;;21.20;1.00;;;;;;10467981;28;20521;-80
2022/07/21 00:32:39;;;;;;;5.40;4.45;;;21.10;1.00;;;;;;10482849;28;20263;-80
2022/07/21 00:38:01;;;;;;;6.10;4.30;;;21.00;1.00;;;;;;10470641;28;20207;-80
2022/07/21 00:43:22;;;;;;;5.68;4.88;;;21.10;1.00;;;;;;10467741;28;20242;-81
2022/07/21 00:48:43;;;;;;;7.90;4.55;;;21.00;1.00;;;;;;10470317;28;20227;-81
2022/07/21 00:54:05;;;;;;;6.78;4.82;;;21.00;1.00;;;;;;10469843;28;20199;-83
2022/07/21 00:59:28;;;;;;;8.40;5.47;;;20.90;1.00;;;;;;10480962;28;20218;-82
2022/07/21 01:04:49;;;;;;;6.97;4.55;;;20.80;1.00;;;;;;10483302;28;20203;-81
2022/07/21 01:10:13;;;;;;;5.45;4.63;;;20.60;1.00;;;;;;10425622;28;20259;-81
2022/07/21 01:15:35;;;;;;;6.95;4.40;;;20.60;1.00;;;;;;10456213;28;20197;-83
2022/07/21 01:21:03;;;;;;;5.85;4.55;;;20.60;1.00;;;;;;10456015;28;20203;-81
2022/07/21 01:26:25;;;;;;;6.75;4.80;;;20.50;1.00;;;;;;10478004;28;20247;-83
2022/07/21 01:31:48;;;;;;;7.90;4.90;;;20.50;1.00;;;;;;10482739;28;20196;-80
2022/07/21 01:37:09;;;;;;;8.48;5.55;;;20.40;1.00;;;;;;10482234;28;20274;-82
2022/07/21 01:42:31;;;;;;;7.07;5.30;;;20.30;1.00;;;;;;10479869;28;20188;-83
2022/07/21 01:47:53;;;;;;;8.60;5.75;;;20.30;1.00;;;;;;10480548;28;20227;-82
2022/07/21 01:53:14;;;;;;;9.15;6.15;;;20.30;1.00;;;;;;10479410;28;20193;-82
2022/07/21 01:58:36;;;;;;;7.75;6.35;;;20.30;1.00;;;;;;10498734;28;20433;-83
2022/07/21 02:04:00;;;;;;;7.32;5.20;;;20.20;1.00;;;;;;10506383;28;20215;-83
2022/07/21 02:09:22;;;;;;;6.97;5.53;;;20.20;1.00;;;;;;10480379;28;20272;-82
2022/07/21 02:14:43;;;;;;;6.70;5.43;;;20.20;1.00;;;;;;10478547;28;20191;-83
2022/07/21 02:20:05;;;;;;;7.78;5.63;;;20.10;1.00;;;;;;10480443;28;20202;-82
2022/07/21 02:25:27;;;;;;;9.10;5.70;;;20.10;1.00;;;;;;10480289;28;20224;-81
2022/07/21 02:30:49;;;;;;;6.00;5.40;;;20.10;1.00;;;;;;10470149;28;20189;-83
2022/07/21 02:36:11;;;;;;;6.72;5.18;;;20.10;1.00;;;;;;10438985;28;20254;-82
2022/07/21 02:41:32;;;;;;;6.43;5.38;;;20.10;1.00;;;;;;10438932;28;20463;-81
2022/07/21 02:46:53;;;;;;;7.07;5.80;;;20.00;1.00;;;;;;10438529;28;20228;-80
2022/07/21 02:52:15;;;;;;;7.75;5.65;;;20.00;1.00;;;;;;10436931;28;20188;-80
2022/07/21 02:57:37;;;;;;;10.40;6.00;;;19.90;1.00;;;;;;10495878;28;20199;-80
2022/07/21 03:02:58;;;;;;;9.35;6.45;;;20.00;1.00;;;;;;10520724;28;20198;-80
2022/07/21 03:08:22;;;;;;;8.75;6.30;;;20.00;1.00;;;;;;10520972;28;20521;-83
2022/07/21 03:13:43;;;;;;;8.02;5.85;;;20.00;1.00;;;;;;10520654;28;20239;-83
2022/07/21 03:19:06;;;;;;;6.85;5.72;;;20.00;1.00;;;;;;10520392;28;20274;-83
2022/07/21 03:24:30;;;;;;;6.40;5.38;;;20.00;1.00;;;;;;10515094;28;20356;-83
2022/07/21 03:29:52;;;;;;;7.15;5.18;;;20.00;1.00;;;;;;10485084;28;20208;-81
2022/07/21 03:35:14;;;;;;;5.55;4.95;;;20.00;1.00;;;;;;10484714;28;20223;-84
2022/07/21 03:40:37;;;;;;;6.05;5.15;;;20.10;1.00;;;;;;10484376;28;20222;-84
2022/07/21 03:45:58;;;;;;;6.93;5.18;;;20.10;1.00;;;;;;10485298;28;20226;-83
2022/07/21 03:51:20;;;;;;;6.88;4.97;;;20.10;1.00;;;;;;10486464;28;20195;-83
2022/07/21 03:56:41;;;;;;;8.00;5.65;;;20.20;1.00;;;;;;10481870;28;20233;-83
2022/07/21 04:02:03;;;;;;;7.30;5.45;;;20.20;1.00;;;;;;10525074;28;20195;-80
2022/07/21 04:07:24;;;;;;;7.70;5.90;;;20.30;1.00;;;;;;10541752;28;20306;-81
2022/07/21 04:12:47;;;;;;;7.90;5.72;;;20.30;1.00;;;;;;10527082;28;20235;-83
2022/07/21 04:18:09;;;;;;;8.02;6.45;;;20.30;1.00;;;;;;10524356;28;20247;-84
2022/07/21 04:23:31;;;;;;;8.23;5.97;;;20.40;1.00;;;;;;10533298;28;20207;-83
2022/07/21 04:28:52;;;;;;;9.63;6.70;;;20.30;1.00;;;;;;10468643;28;20231;-84
2022/07/21 04:34:13;;;;;;;8.13;6.15;;;20.40;1.00;;;;;;10481681;28;20448;-83
2022/07/21 04:39:35;;;;;;;10.73;5.97;;;20.50;1.00;;;;;;10482687;28;20217;-83
2022/07/21 04:44:57;;;;;;;8.93;6.18;;;20.60;1.00;;;;;;10470427;28;20222;-83
2022/07/21 04:50:22;;;;;;;8.18;6.38;;;20.60;1.00;;;;;;10467737;28;20200;-83
2022/07/21 04:55:44;;;;;;;8.40;6.68;;;20.70;1.00;;;;;;10466857;28;20419;-83
2022/07/21 05:01:05;;;;;;;7.90;5.63;;;20.70;1.00;;;;;;10495245;28;20210;-82
2022/07/21 05:06:27;;;;;;;8.55;6.28;;;20.80;1.00;;;;;;10497688;28;20230;-83
2022/07/21 05:11:48;;;;;;;8.60;6.72;;;20.90;1.00;;;;;;10483420;28;20231;-84
2022/07/21 05:17:10;;;;;;;13.95;7.25;;;21.00;1.00;;;;;;10497285;28;20199;-80
2022/07/21 05:22:32;;;;;;;7.28;6.00;;;21.10;1.00;;;;;;10466282;28;20218;-81
2022/07/21 05:27:54;;;;;;;8.88;6.68;;;21.20;1.00;;;;;;10482726;28;20415;-80
2022/07/21 05:33:16;;;;;;;6.32;5.35;;;21.40;1.00;;;;;;10480222;28;20192;-79
2022/07/21 05:38:38;;;;;;;9.00;7.03;;;21.60;1.00;;;;;;10482417;28;20196;-79
2022/07/21 05:44:00;;;;;;;6.60;5.60;;;21.70;1.00;;;;;;10481009;28;20223;-80
2022/07/21 05:49:22;;;;;;;9.43;5.97;;;21.90;1.00;;;;;;10495641;28;20556;-80
2022/07/21 05:54:43;;;;;;;6.32;5.43;;;22.00;1.00;;;;;;10479230;28;20270;-80
2022/07/21 06:00:07;;;;;;;12.88;6.38;;;22.30;1.00;;;;;;10474832;28;20480;-80
2022/07/21 06:05:28;;;;;;;7.93;6.30;;;22.50;1.00;;;;;;10467128;28;20557;-80
2022/07/21 06:10:50;;;;;;;8.52;6.68;;;22.70;1.00;;;;;;10479410;28;20514;-80
2022/07/21 06:16:12;;;;;;;9.20;6.22;;;22.90;1.00;;;;;;10463578;28;20197;-80
2022/07/21 06:21:33;;;;;;;8.38;6.80;;;23.20;99.90;;;;;;10478831;28;20211;-80
2022/07/21 06:26:57;;;;;;;15.48;8.20;;;23.40;99.90;;;;;;10463357;28;20410;-81
2022/07/21 06:32:21;;;;;;;8.90;6.25;;;23.80;99.90;;;;;;10449758;28;20206;-80
2022/07/21 06:37:46;;;;;;;9.18;7.10;;;24.20;99.90;;;;;;10478150;28;20282;-80
2022/07/21 06:43:08;;;;;;;10.93;6.38;;;24.60;1.00;;;;;;10476565;28;20195;-80
2022/07/21 06:48:46;;;;;;;8.55;5.97;;;25.10;1.00;;;;;;10476823;28;20583;-80
2022/07/21 06:54:07;;;;;;;6.18;5.57;;;25.80;99.90;;;;;;10476666;28;20195;-80
2022/07/21 06:59:29;;;;;;;9.00;5.85;;;26.40;99.90;;;;;;10489861;28;20294;-81
2022/07/21 07:04:50;;;;;;;21.83;6.45;;;27.00;99.90;;;;;;10534799;28;20199;-80
2022/07/21 07:10:11;;;;;;;11.55;6.25;;;27.30;1.00;;;;;;10517371;28;20242;-80
2022/07/21 07:15:33;;;;;;;7.13;5.45;;;27.80;1.00;;;;;;10532357;28;20205;-81
2022/07/21 07:20:55;;;;;;;7.28;5.00;;;28.40;1.00;;;;;;10520442;28;20379;-81
2022/07/21 07:26:16;;;;;;;6.95;4.80;;;29.00;48.00;;;;;;10499525;28;20257;-81
2022/07/21 07:31:38;;;;;;;6.85;5.00;;;29.40;48.20;;;;;;10444542;28;20254;-81
2022/07/21 07:37:00;;;;;;;9.10;4.95;;;29.70;44.00;;;;;;10455651;28;20203;-83
2022/07/21 07:42:22;;;;;;;6.15;4.50;;;30.10;40.00;;;;;;10442892;28;20212;-80
2022/07/21 07:47:43;;;;;;;23.20;6.10;;;30.30;37.80;;;;;;10469606;28;20231;-80
2022/07/21 07:53:05;;;;;;;5.20;4.45;;;30.60;35.20;;;;;;10472374;28;20517;-78
2022/07/21 07:58:26;;;;;;;4.78;4.28;;;31.10;32.80;;;;;;10458289;28;20214;-79
2022/07/21 08:03:48;;;;;;;8.48;4.97;;;31.30;30.00;;;;;;10472426;28;20203;-79
2022/07/21 08:09:10;;;;;;;6.57;4.35;;;31.70;28.80;;;;;;10476203;28;20286;-79
2022/07/21 08:14:31;;;;;;;8.90;4.93;;;32.00;27.40;;;;;;10478554;28;20510;-79
2022/07/21 08:19:53;;;;;;;6.40;4.85;;;32.00;24.30;;;;;;10437350;28;20200;-79
2022/07/21 08:25:14;;;;;;;5.63;4.40;;;32.50;24.00;;;;;;10458157;28;20271;-79
2022/07/21 08:30:36;;;;;;;10.70;4.45;;;33.10;21.90;;;;;;10477355;28;20231;-80
2022/07/21 08:35:58;;;;;;;4.43;4.03;;;33.60;19.60;;;;;;10474545;28;20204;-79
2022/07/21 08:41:20;;;;;;;12.57;4.25;;;33.80;18.40;;;;;;10477395;28;20233;-80
2022/07/21 08:46:42;;;;;;;9.70;4.63;;;33.90;17.10;;;;;;10490210;28;20227;-80
2022/07/21 08:52:06;;;;;;;6.55;5.38;;;34.10;17.00;;;;;;10477823;28;20188;-80
2022/07/21 08:57:27;;;;;;;9.85;4.30;;;34.30;15.70;;;;;;10468656;28;20290;-78
2022/07/21 09:02:49;;;;;;;6.63;4.30;;;34.50;15.60;;;;;;10475222;28;20245;-78
2022/07/21 09:08:11;;;;;;;6.05;3.95;;;34.80;14.40;;;;;;10476982;28;20231;-79
2022/07/21 09:13:32;;;;;;;9.68;4.63;;;35.00;13.90;;;;;;10467919;28;20262;-79
2022/07/21 09:18:54;;;;;;;4.63;4.18;;;35.20;12.50;;;;;;10473073;28;20204;-79
2022/07/21 09:24:18;;;;;;;7.85;5.28;;;35.60;12.30;;;;;;10474743;28;20203;-82
2022/07/21 09:29:48;;;;;;;9.85;6.07;;;36.00;12.30;;;;;;10477474;28;20576;-79
2022/07/21 09:35:14;;;;;;;8.15;5.75;;;36.10;12.50;;;;;;10452130;28;20250;-80
2022/07/21 09:40:46;;;;;;;13.48;7.93;;;36.40;11.30;;;;;;10473247;28;20226;-78
2022/07/21 09:46:17;;;;;;;5.03;4.03;;;36.50;10.00;;;;;;10467899;28;20298;-83
2022/07/21 09:51:41;;;;;;;8.10;5.43;;;36.70;10.30;;;;;;10474021;28;20234;-79
2022/07/21 09:57:03;;;;;;;11.98;5.60;;;36.80;9.60;;;;;;10472868;28;20227;-78
2022/07/21 10:02:29;;;;;;;8.65;4.90;;;36.70;9.60;;;;;;10474285;28;20215;-80
2022/07/21 10:07:51;;;;;;;5.18;3.90;;;36.80;9.80;;;;;;10475152;28;20223;-79
2022/07/21 10:13:13;;;;;;;7.55;4.32;;;36.80;8.50;;;;;;10474394;28;20227;-81
2022/07/21 10:18:46;;;;;;;6.10;4.35;;;37.10;9.30;;;;;;10472248;28;20187;-78
2022/07/21 10:24:11;;;;;;;7.50;3.80;;;36.90;8.20;;;;;;10472121;28;20211;-81
2022/07/21 10:30:04;;;;;;;9.50;5.47;;;37.00;8.10;;;;;;10472175;28;20613;-81
2022/07/21 10:35:29;;;;;;;6.80;4.20;;;37.00;8.50;;;;;;10440720;28;20255;-84
2022/07/21 10:40:50;;;;;;;7.03;5.30;;;37.20;6.90;;;;;;10430991;28;20196;-78
2022/07/21 10:46:33;;;;;;;7.07;4.25;;;37.10;7.40;;;;;;10451794;28;20206;-79
2022/07/21 10:51:55;;;;;;;13.65;7.93;;;37.10;6.80;;;;;;10449266;28;20215;-79
2022/07/21 10:57:27;;;;;;;11.43;4.60;;;37.20;7.00;;;;;;10472754;28;20633;-82
2022/07/21 11:02:53;;;;;;;5.22;4.40;;;37.50;5.40;;;;;;10459960;28;20207;-80
2022/07/21 11:08:17;;;;;;;6.75;4.80;;;37.40;5.40;;;;;;10471550;28;20283;-78
2022/07/21 11:14:05;;;;;;;7.25;4.20;;;37.30;6.20;;;;;;10470997;28;20277;-79
2022/07/21 11:19:52;;;;;;;8.60;5.13;;;37.40;5.80;;;;;;10448302;28;20211;-78
2022/07/21 11:25:14;;;;;;;5.72;4.57;;;37.60;5.50;;;;;;10432615;28;20204;-80
2022/07/21 11:30:35;;;;;;;5.97;4.50;;;37.70;5.50;;;;;;10473159;28;20277;-90
2022/07/21 11:35:56;;;;;;;6.25;4.50;;;37.70;5.80;;;;;;10471756;28;20284;-83
2022/07/21 11:41:19;;;;;;;5.78;4.32;;;37.90;4.70;;;;;;10438975;28;20254;-81
2022/07/21 11:46:56;;;;;;;5.43;4.28;;;37.90;3.80;;;;;;10423616;28;20220;-80
2022/07/21 11:52:17;;;;;;;4.72;4.22;;;38.00;4.90;;;;;;10438888;28;20205;-86
2022/07/21 11:57:46;;;;;;;4.38;3.92;;;37.90;4.80;;;;;;10468384;28;20381;-88
2022/07/21 12:03:07;;;;;;;7.72;4.35;;;37.80;4.30;;;;;;10478741;28;20204;-80
2022/07/21 12:08:29;;;;;;;7.72;5.00;;;37.70;4.80;;;;;;10477974;28;20243;-79
2022/07/21 12:13:56;;;;;;;6.90;4.47;;;37.70;4.60;;;;;;10486691;28;20235;-82
2022/07/21 12:19:19;;;;;;;8.45;4.70;;;37.60;4.10;;;;;;10479386;28;20231;-77
2022/07/21 12:24:58;;;;;;;5.03;4.50;;;37.50;4.50;;;;;;10465604;28;20202;-81
2022/07/21 12:30:42;;;;;;;7.68;4.60;;;37.50;3.40;;;;;;10448313;28;20278;-83
2022/07/21 12:36:06;;;;;;;8.13;4.75;;;37.50;3.80;;;;;;10474965;28;20207;-84
2022/07/21 12:41:29;;;;;;;10.88;5.15;;;37.50;2.40;;;;;;10475779;28;20537;-81
2022/07/21 12:46:51;;;;;;;7.82;4.40;;;37.40;3.20;;;;;;10474417;28;20223;-83
2022/07/21 12:52:13;;;;;;;16.05;5.25;;;37.50;3.70;;;;;;10475957;28;20192;-81
2022/07/21 12:57:35;;;;;;;8.10;4.63;;;37.50;3.00;;;;;;10477337;28;20196;-83
2022/07/21 13:02:57;;;;;;;13.18;5.18;;;37.60;2.30;;;;;;10476457;28;20226;-80
2022/07/21 13:08:19;;;;;;;7.80;4.55;;;37.50;2.70;;;;;;10476465;28;20265;-85
2022/07/21 13:13:40;;;;;;;10.48;5.20;;;37.30;2.70;;;;;;10476420;28;20224;-81
2022/07/21 13:19:01;;;;;;;12.63;5.13;;;37.10;3.10;;;;;;10475831;28;20199;-79
2022/07/21 13:24:23;;;;;;;9.38;4.90;;;36.90;3.10;;;;;;10477932;28;20265;-80
2022/07/21 13:29:44;;;;;;;10.13;5.38;;;36.80;2.90;;;;;;10476147;28;20298;-80
2022/07/21 13:35:06;;;;;;;20.17;5.30;;;36.80;3.60;;;;;;10474447;28;20222;-86
2022/07/21 13:40:48;;;;;;;6.63;4.50;;;36.80;3.00;;;;;;10477835;28;20191;-87
2022/07/21 13:46:29;;;;;;;15.30;5.63;;;36.70;2.80;;;;;;10464656;28;20497;-86
2022/07/21 13:51:50;;;;;;;6.68;4.95;;;36.80;3.70;;;;;;10476554;28;20191;-89
2022/07/21 13:57:11;;;;;;;8.75;4.55;;;36.70;3.90;;;;;;10476340;28;20199;-93
2022/07/21 14:02:33;;;;;;;6.63;5.00;;;36.70;4.20;;;;;;10474862;28;20195;-83
2022/07/21 14:07:54;;;;;;;6.00;4.95;;;36.60;4.00;;;;;;10473799;28;20258;-82
2022/07/21 14:13:16;;;;;;;9.82;4.55;;;36.30;4.30;;;;;;10473835;28;20258;-84
2022/07/21 14:18:37;;;;;;;10.57;4.80;;;36.20;3.90;;;;;;10475696;28;20316;-82
2022/07/21 14:29:39;;;;;;;13.70;5.70;;;36.00;3.70;;;;;;10473665;28;20235;-82
2022/07/21 14:35:00;;;;;;;7.20;4.75;;;35.80;3.70;;;;;;10471086;28;20231;-87
2022/07/21 14:40:22;;;;;;;7.70;5.20;;;35.80;4.40;;;;;;10474968;28;20238;-86
2022/07/21 14:45:44;;;;;;;10.23;4.75;;;35.70;4.70;;;;;;10473093;28;20187;-84
2022/07/21 14:51:05;;;;;;;8.07;5.10;;;35.50;5.60;;;;;;10472756;28;20230;-89
2022/07/21 14:56:27;;;;;;;7.20;4.90;;;35.30;5.10;;;;;;10472658;28;20192;-90
2022/07/21 15:01:55;;;;;;;15.95;5.47;;;35.20;4.70;;;;;;10473226;28;20204;-80
2022/07/21 15:07:17;;;;;;;9.63;4.97;;;35.10;5.30;;;;;;10489424;28;20203;-84
2022/07/21 15:12:38;;;;;;;9.45;4.25;;;34.90;4.50;;;;;;10476793;28;20434;-79
2022/07/21 15:18:00;;;;;;;12.85;4.55;;;34.80;3.80;;;;;;10488611;28;20188;-83
2022/07/21 15:23:22;;;;;;;11.30;5.15;;;34.70;4.70;;;;;;10490759;28;20195;-79
2022/07/21 15:28:43;;;;;;;13.13;6.55;;;34.70;4.70;;;;;;10490790;28;20269;-81
2022/07/21 15:34:05;;;;;;;10.38;5.88;;;34.60;4.90;;;;;;10490053;28;20203;-81
2022/07/21 15:39:26;;;;;;;15.45;7.25;;;34.60;6.00;;;;;;10504870;28;20277;-81
2022/07/21 15:44:48;;;;;;;9.38;4.88;;;34.50;6.00;;;;;;10493167;28;20199;-82
2022/07/21 15:50:09;;;;;;;7.70;4.75;;;34.30;6.00;;;;;;10490451;28;20257;-85
2022/07/21 15:55:33;;;;;;;10.57;4.85;;;34.20;6.20;;;;;;10491272;28;20188;-90
2022/07/21 16:00:55;;;;;;;9.63;4.75;;;34.10;5.60;;;;;;10491208;28;20241;-81
2022/07/21 16:06:17;;;;;;;7.65;4.75;;;34.00;4.70;;;;;;10490433;28;20187;-88
2022/07/21 16:11:40;;;;;;;9.07;4.90;;;33.90;4.80;;;;;;10492871;28;20247;-89
2022/07/21 16:17:02;;;;;;;6.82;4.22;;;33.80;5.50;;;;;;10490517;28;20241;-79
2022/07/21 16:22:23;;;;;;;6.32;4.10;;;33.70;5.70;;;;;;10490931;28;20222;-79
2022/07/21 16:27:46;;;;;;;9.00;5.00;;;33.60;6.10;;;;;;10487895;28;20214;-80
2022/07/21 16:33:07;;;;;;;12.30;5.35;;;33.60;6.20;;;;;;10483370;28;20487;-82
2022/07/21 16:38:29;;;;;;;7.80;4.80;;;33.50;5.50;;;;;;10499300;28;20200;-90
2022/07/21 16:43:50;;;;;;;8.00;4.28;;;33.40;5.30;;;;;;10482805;28;20242;-91
2022/07/21 16:49:13;;;;;;;7.20;4.38;;;33.30;5.80;;;;;;10483457;28;20291;-79
2022/07/21 16:54:34;;;;;;;9.10;4.32;;;33.20;6.00;;;;;;10484251;28;20271;-88
2022/07/21 16:59:56;;;;;;;8.93;4.38;;;33.10;6.60;;;;;;10483261;28;20494;-82
2022/07/21 17:05:17;;;;;;;6.60;4.47;;;33.10;6.60;;;;;;10480964;28;20188;-82
2022/07/21 17:10:38;;;;;;;10.07;4.80;;;33.00;7.40;;;;;;10479459;28;20231;-82
2022/07/21 17:16:00;;;;;;;8.10;4.63;;;32.80;7.20;;;;;;10464288;28;20191;-85
2022/07/21 17:21:22;;;;;;;10.60;6.00;;;32.80;7.60;;;;;;10481843;28;20393;-81
2022/07/21 17:26:43;;;;;;;9.23;5.30;;;32.60;7.80;;;;;;10467258;28;20203;-80
2022/07/21 17:32:05;;;;;;;8.73;5.38;;;32.50;8.00;;;;;;10469316;28;20200;-80
2022/07/21 17:37:27;;;;;;;8.10;4.90;;;32.40;8.90;;;;;;10481236;28;20211;-81
2022/07/21 17:42:49;;;;;;;7.55;5.68;;;32.20;11.40;;;;;;10479820;28;20195;-83
2022/07/21 17:48:10;;;;;;;17.15;7.18;;;32.00;12.60;;;;;;10480834;28;20518;-85
2022/07/21 17:53:32;;;;;;;13.18;7.97;;;31.90;13.20;;;;;;10480160;28;20183;-82
2022/07/21 17:58:57;;;;;;;13.32;8.95;;;31.30;15.40;;;;;;10447124;28;20211;-85
2022/07/21 18:04:18;;;;;;;11.35;8.60;;;30.60;17.00;;;;;;10481566;28;20220;-81
2022/07/21 18:09:39;;;;;;;21.52;9.45;;;;;;;;;;10465155;28;20424;-82
2022/07/21 18:15:01;;;;;;;12.18;9.07;;;29.60;18.10;;;;;;10465095;28;20196;-85
2022/07/21 18:20:23;;;;;;;10.82;8.85;;;29.20;19.90;;;;;;10478678;28;20196;-84
2022/07/21 18:25:44;;;;;;;14.77;10.98;;;29.00;21.90;;;;;;10478915;28;20555;-83
2022/07/21 18:31:08;;;;;;;12.98;9.75;;;28.70;1.00;;;;;;10480378;28;20541;-83
2022/07/21 18:36:29;;;;;;;17.55;11.50;;;28.50;31.60;;;;;;10486306;28;20212;-80
2022/07/21 18:41:50;;;;;;;15.00;10.80;;;;;;;;;;10479229;28;20184;-82
2022/07/21 18:47:12;;;;;;;16.08;11.35;;;28.10;1.00;;;;;;10477660;28;20204;-86
2022/07/21 18:52:34;;;;;;;15.50;11.52;;;27.90;99.90;;;;;;10463307;28;20191;-80
2022/07/21 18:57:55;;;;;;;18.27;11.80;;;27.80;99.90;;;;;;10483453;28;20192;-86
2022/07/21 19:03:16;;;;;;;14.65;11.63;;;27.70;99.90;;;;;;10477412;28;20202;-83
2022/07/21 19:08:38;;;;;;;23.58;12.13;;;27.50;1.00;;;;;;10477146;28;20227;-81
2022/07/21 19:14:01;;;;;;;15.63;12.88;;;27.30;1.00;;;;;;10478023;28;20231;-81
2022/07/21 19:19:22;;;;;;;16.05;12.75;;;27.10;99.90;;;;;;10478682;28;20195;-81
2022/07/21 19:24:43;;;;;;;19.02;12.60;;;27.00;1.00;;;;;;10477244;28;20183;-80
2022/07/21 19:30:06;;;;;;;16.27;12.73;;;;;;;;;;10476162;28;20235;-82
2022/07/21 19:35:29;;;;;;;18.60;13.50;;;26.80;1.00;;;;;;10476624;28;20271;-84
2022/07/21 19:40:50;;;;;;;20.55;12.52;;;26.70;99.90;;;;;;10479880;28;20400;-84
2022/07/21 19:46:13;;;;;;;15.70;12.32;;;26.70;1.00;;;;;;10476173;28;20279;-80
2022/07/21 19:51:34;;;;;;;15.82;11.65;;;26.60;1.00;;;;;;10476658;28;20226;-85
2022/07/21 19:56:56;;;;;;;15.80;12.95;;;26.50;37.70;;;;;;10478912;28;20200;-85
2022/07/21 20:02:18;;;;;;;16.35;13.10;;;26.40;99.90;;;;;;10477833;28;20234;-85
2022/07/21 20:07:40;;;;;;;19.45;13.65;;;26.30;1.00;;;;;;10497913;28;20518;-86
2022/07/21 20:13:04;;;;;;;13.70;12.00;;;26.10;1.00;;;;;;10483893;28;20533;-83
2022/07/21 20:18:25;;;;;;;15.77;12.63;;;26.00;17.50;;;;;;10485720;28;20191;-84
2022/07/21 20:23:48;;;;;;;19.05;13.00;;;25.90;1.00;;;;;;10498114;28;20187;-85
2022/07/21 20:29:10;;;;;;;18.75;13.20;;;25.90;1.00;;;;;;10482927;28;20231;-81
2022/07/21 20:34:32;;;;;;;17.38;13.70;;;25.90;1.00;;;;;;10490383;28;20191;-82
2022/07/21 20:39:55;;;;;;;16.55;13.65;;;25.70;99.90;;;;;;10469646;28;20207;-86
2022/07/21 20:45:38;;;;;;;16.48;13.13;;;25.60;1.00;;;;;;10496561;28;20186;-80
2022/07/21 20:50:59;;;;;;;19.48;13.10;;;25.60;1.00;;;;;;10482533;28;20220;-79
2022/07/21 20:56:20;;;;;;;15.82;12.93;;;25.50;1.00;;;;;;10483074;28;20195;-86
2022/07/21 21:01:56;;;;;;;14.85;13.18;;;25.40;99.90;;;;;;10481995;28;20486;-85
2022/07/21 21:07:18;;;;;;;16.73;13.55;;;25.40;99.90;;;;;;10481616;28;20199;-85
2022/07/21 21:12:39;;;;;;;18.42;13.60;;;25.30;1.00;;;;;;10481192;28;20254;-84
2022/07/21 21:18:03;;;;;;;16.40;12.25;;;25.20;1.00;;;;;;10481246;28;20234;-84
2022/07/21 21:23:24;;;;;;;18.52;14.18;;;25.10;1.00;;;;;;10481318;28;20199;-81
2022/07/21 21:28:46;;;;;;;17.70;12.93;;;25.10;1.00;;;;;;10494630;28;20239;-83
2022/07/21 21:34:08;;;;;;;16.45;12.98;;;25.00;1.00;;;;;;10465089;28;20278;-85
2022/07/21 21:39:29;;;;;;;19.40;13.90;;;24.90;11.10;;;;;;10496913;28;20250;-80
2022/07/21 21:44:51;;;;;;;20.70;14.68;;;24.80;82.30;;;;;;10480169;28;20208;-79
2022/07/21 21:50:12;;;;;;;16.58;13.40;;;24.70;99.90;;;;;;10480951;28;20238;-81
2022/07/21 21:55:34;;;;;;;15.77;12.02;;;24.70;99.90;;;;;;10480654;28;20191;-79
2022/07/21 22:00:55;;;;;;;20.35;13.45;;;;;;;;;;10465460;28;20199;-79
2022/07/21 22:06:17;;;;;;;21.27;14.10;;;24.50;99.90;;;;;;10465368;28;20202;-80
2022/07/21 22:11:39;;;;;;;20.50;14.18;;;24.30;99.90;;;;;;10464610;28;20243;-85
2022/07/21 22:17:00;;;;;;;21.63;14.30;;;24.20;99.90;;;;;;10464740;28;20199;-84
2022/07/21 22:22:21;;;;;;;19.83;14.05;;;24.20;99.90;;;;;;10478968;28;20192;-81
2022/07/21 22:27:43;;;;;;;14.93;13.30;;;24.20;1.00;;;;;;10463659;28;20194;-81
2022/07/21 22:33:04;;;;;;;16.58;13.18;;;24.10;1.00;;;;;;10481079;28;20204;-83
2022/07/21 22:38:26;;;;;;;18.65;13.88;;;24.20;1.00;;;;;;10477790;28;20279;-85
2022/07/21 22:43:47;;;;;;;23.08;13.93;;;24.10;1.00;;;;;;10492268;28;20191;-80
2022/07/21 22:49:09;;;;;;;16.33;13.30;;;24.00;1.00;;;;;;10494100;28;20517;-80
2022/07/21 22:54:30;;;;;;;15.95;13.77;;;24.00;1.00;;;;;;10477355;28;20198;-80
2022/07/21 22:59:51;;;;;;;15.77;13.75;;;23.90;1.00;;;;;;10477188;28;20450;-78
2022/07/21 23:05:13;;;;;;;16.88;14.00;;;23.80;1.00;;;;;;10478469;28;20198;-79
2022/07/21 23:10:34;;;;;;;15.30;12.48;;;23.80;1.00;;;;;;10490867;28;20307;-80
2022/07/21 23:15:56;;;;;;;16.98;13.25;;;23.70;1.00;;;;;;10476829;28;20215;-80
2022/07/21 23:21:17;;;;;;;25.75;15.18;;;23.70;1.00;;;;;;10476687;28;20196;-82
2022/07/21 23:26:38;;;;;;;18.48;15.57;;;23.60;1.00;;;;;;10478045;28;20187;-80
2022/07/21 23:32:00;;;;;;;19.50;14.90;;;23.50;1.00;;;;;;10462255;28;20460;-81
2022/07/21 23:37:21;;;;;;;24.02;16.75;;;23.40;1.00;;;;;;10479372;28;20220;-83
2022/07/21 23:42:42;;;;;;;17.30;13.98;;;23.30;1.00;;;;;;10470747;28;20199;-85
2022/07/21 23:48:04;;;;;;;18.17;15.35;;;23.20;1.00;;;;;;10485449;28;20406;-85
2022/07/21 23:53:25;;;;;;;18.90;14.55;;;23.20;1.00;;;;;;10486224;28;20214;-85
2022/07/21 23:58:47;;;;;;;19.35;15.57;;;23.10;1.00;;;;;;10484385;28;20279;-79
